This is the latest recevied weather packets stored in our database for station/object W7MB. If no packets are shown the sender has not sent any weather packets the latest 1 day(s).
| Time | Temp. | Humidity | Pressure | Rain* | Wind** | Luminosity | Snow |
|---|---|---|---|---|---|---|---|
| 1778082124 | 12.22° C | 81% | 1014.7 hPa | 0 mm | - | - | - |
| 1778078884 | 7.22° C | 61% | 1015.1 hPa | 0 mm | - | - | - |
| 1778076004 | 5.56° C | 71% | 1015.1 hPa | 0 mm | - | - | - |
| 1778059937 | 7.22° C | 80% | 1013.8 hPa | 0 mm | - | - | - |
| 1778058723 | 7.78° C | 81% | 1013.9 hPa | 0 mm | - | - | - |
| 1778053323 | 10° C | 81% | 1013.5 hPa | 0 mm | - | - | - |
| 1778051523 | 10.56° C | 80% | 1013.4 hPa | 0 mm | - | - | - |
| 1778048643 | 11.11° C | 79% | 1013 hPa | 0 mm | - | - | - |
| 1778044683 | 12.78° C | 75% | 1012.7 hPa | 0 mm | - | - | - |
| 1778040723 | 16.67° C | 66% | 1012.1 hPa | 0 mm | - | - | - |
| 1778039283 | 17.78° C | 61% | 1011.8 hPa | 0 mm | - | - | - |
| 1778038923 | 18.33° C | 60% | 1011.7 hPa | 0 mm | - | - | - |
| 1778037123 | 20° C | 52% | 1011.2 hPa | 0 mm | - | - | - |
| 1778035683 | 21.11° C | 49% | 1010.9 hPa | 0 mm | - | - | - |
| 1778035323 | 21.67° C | 48% | 1010.8 hPa | 0 mm | - | - | - |
| 1778033883 | 23.33° C | 44% | 1010.6 hPa | 0 mm | - | - | - |
| 1778033523 | 23.33° C | 43% | 1010.6 hPa | 0 mm | - | - | - |
| 1778033164 | 24.44° C | 42% | 1010.5 hPa | 0 mm | - | - | - |
| 1778031004 | 26.11° C | 36% | 1010.3 hPa | 0 mm | - | - | - |
| 1778030283 | 27.22° C | 33% | 1010.2 hPa | 0 mm | - | - | - |
| 1778029923 | 27.22° C | 34% | 1010.2 hPa | 0 mm | - | - | - |
| 1778028483 | 28.33° C | 30% | 1010 hPa | 0 mm | - | - | - |
| 1778001484 | 20.56° C | 57% | 1012.3 hPa | 0 mm | - | - | - |
* Rain latest hour (hover to see other rain measurements)
** Current wind speed in m/s (hover to see current wind gust speed)